Terminal Aerodrome Forecast
Issued by NWS

Home | Current Version | Previous Version | Text Only | Print | Product List | Glossary On
Versions: 1 2 3 4 5 6 7 8 9 10 11 12 13 14 15 16 17 18 19 20 21 22 23
000
FTUS43 KTOP 231300 AAA
TAFMHK
TAF AMD
KMHK 231359Z 2314/2412 17007KT 2SM -DZ BR OVC012
     FM231600 34010KT 3SM -SHRA BR VCTS BKN007 OVC015CB
     FM232100 32019G21KT 5SM -RASN BR OVC020
     FM240500 31015G22KT P6SM SCT050=

USA.gov is the U.S. government's official web portal to all federal, state and local government web resources and services.